Time;durP1;ratioP1;P1;durP2;ratioP2;P2;SDS_P1;SDS_P2;PMS_P1;PMS_P2;Temp;Humidity;BMP_temperature;BMP_pressure;BME280_temperature;BME280_humidity;BME280_pressure;Samples;Min_cycle;Max_cycle;Signal;HPM_P1;HPM_P2
2023/06/14 00:01:56;;;;;;;8.35;5.70;;;;;;;;;;4936402;29;20482;-80
2023/06/14 00:04:43;;;;;;;9.27;5.75;;;;;;;;;;4940252;29;20422;-81
2023/06/14 00:07:38;;;;;;;8.85;4.93;;;;;;;;;;4940065;29;20044;-81
2023/06/14 00:10:23;;;;;;;10.45;5.10;;;;;;;;;;4940325;29;20047;-82
2023/06/14 00:13:09;;;;;;;5.85;4.95;;;;;;;;;;4940382;29;20044;-82
2023/06/14 00:15:54;;;;;;;6.95;5.47;;;;;;;;;;4939863;29;20047;-82
2023/06/14 00:18:41;;;;;;;8.05;5.20;;;;;;;;;;4939762;29;20047;-80
2023/06/14 00:21:28;;;;;;;11.63;5.85;;;;;;;;;;4940166;29;20051;-81
2023/06/14 00:24:13;;;;;;;24.33;5.57;;;;;;;;;;4940122;29;20044;-79
2023/06/14 00:26:59;;;;;;;17.52;5.63;;;;;;;;;;4939958;29;20467;-80
2023/06/14 00:29:44;;;;;;;8.30;5.20;;;;;;;;;;4939434;29;20051;-81
2023/06/14 00:32:30;;;;;;;10.13;5.22;;;;;;;;;;4939840;29;20051;-81
2023/06/14 00:35:15;;;;;;;5.97;4.78;;;;;;;;;;4939786;29;20051;-81
2023/06/14 00:38:02;;;;;;;8.60;4.65;;;;;;;;;;4925587;29;20044;-81
2023/06/14 00:40:47;;;;;;;9.90;5.70;;;;;;;;;;4939248;29;20040;-80
2023/06/14 00:43:32;;;;;;;6.07;4.35;;;;;;;;;;4930659;29;20044;-80
2023/06/14 00:46:19;;;;;;;5.75;5.00;;;;;;;;;;4939738;29;20406;-82
2023/06/14 00:49:15;;;;;;;11.07;5.03;;;;;;;;;;4931730;29;20047;-81
2023/06/14 00:52:19;;;;;;;7.25;5.03;;;;;;;;;;4914821;29;20486;-79
2023/06/14 00:55:19;;;;;;;7.40;5.25;;;;;;;;;;4926237;29;20063;-80
2023/06/14 00:58:12;;;;;;;9.43;4.47;;;;;;;;;;4938578;29;20043;-81
2023/06/14 01:00:58;;;;;;;9.20;4.93;;;;;;;;;;4931273;29;20051;-80
2023/06/14 01:03:43;;;;;;;7.47;4.85;;;;;;;;;;4939443;29;20040;-81
2023/06/14 01:06:47;;;;;;;9.90;5.00;;;;;;;;;;4938874;29;20051;-80
2023/06/14 01:09:38;;;;;;;9.10;5.03;;;;;;;;;;4931573;29;20048;-79
2023/06/14 01:12:41;;;;;;;11.05;5.07;;;;;;;;;;4931242;29;20056;-80
2023/06/14 01:15:30;;;;;;;6.03;5.00;;;;;;;;;;4937646;29;20039;-81
2023/06/14 01:18:17;;;;;;;6.93;4.43;;;;;;;;;;4939214;29;20262;-81
2023/06/14 01:21:05;;;;;;;6.35;4.55;;;;;;;;;;4930682;29;20051;-80
2023/06/14 01:23:52;;;;;;;7.78;4.72;;;;;;;;;;4938966;29;20474;-80
2023/06/14 01:26:41;;;;;;;9.60;4.90;;;;;;;;;;4938428;29;20040;-81
2023/06/14 01:29:27;;;;;;;6.05;4.40;;;;;;;;;;4917348;29;20043;-80
2023/06/14 01:32:13;;;;;;;5.93;4.45;;;;;;;;;;4924169;29;20043;-81
2023/06/14 01:34:58;;;;;;;12.90;5.75;;;;;;;;;;4930582;29;20477;-81
2023/06/14 01:37:48;;;;;;;11.93;4.95;;;;;;;;;;4931143;29;20051;-81
2023/06/14 01:40:35;;;;;;;8.57;5.10;;;;;;;;;;4930795;29;20047;-81
2023/06/14 01:43:21;;;;;;;6.93;4.80;;;;;;;;;;4930599;29;20048;-81
2023/06/14 01:46:07;;;;;;;6.90;4.45;;;;;;;;;;4938669;29;20047;-81
2023/06/14 01:48:52;;;;;;;6.72;4.68;;;;;;;;;;4938106;29;20051;-80
2023/06/14 01:51:39;;;;;;;9.38;4.88;;;;;;;;;;4938644;29;20402;-80
2023/06/14 01:54:25;;;;;;;11.07;4.95;;;;;;;;;;4930443;29;20039;-81
2023/06/14 01:57:10;;;;;;;11.15;4.93;;;;;;;;;;4923888;29;20044;-81
2023/06/14 01:59:57;;;;;;;9.48;5.03;;;;;;;;;;4930543;29;20043;-80
2023/06/14 02:02:44;;;;;;;6.28;4.55;;;;;;;;;;4929967;29;20044;-81
2023/06/14 02:05:30;;;;;;;11.95;7.97;;;;;;;;;;4929600;29;20060;-81
2023/06/14 02:08:14;;;;;;;13.73;8.43;;;;;;;;;;4929986;29;20039;-81
2023/06/14 02:11:00;;;;;;;12.77;5.25;;;;;;;;;;4938063;29;20044;-81
2023/06/14 02:13:46;;;;;;;11.13;5.45;;;;;;;;;;4930051;29;20047;-81
2023/06/14 02:16:32;;;;;;;10.30;4.90;;;;;;;;;;4930046;29;20047;-82
2023/06/14 02:19:20;;;;;;;10.70;5.93;;;;;;;;;;4916697;29;20047;-81
2023/06/14 02:22:06;;;;;;;10.40;5.28;;;;;;;;;;4929561;29;20043;-80
2023/06/14 02:24:53;;;;;;;11.32;5.57;;;;;;;;;;4937638;29;20047;-81
2023/06/14 02:27:39;;;;;;;11.48;5.85;;;;;;;;;;4923465;29;20051;-80
2023/06/14 02:30:24;;;;;;;17.23;5.55;;;;;;;;;;4937551;29;20044;-81
2023/06/14 02:33:12;;;;;;;10.93;5.47;;;;;;;;;;4936722;29;20039;-81
2023/06/14 02:36:02;;;;;;;6.95;5.13;;;;;;;;;;4923268;29;20410;-81
2023/06/14 02:38:47;;;;;;;10.20;5.43;;;;;;;;;;4929298;29;20475;-81
2023/06/14 02:41:34;;;;;;;10.15;5.55;;;;;;;;;;4937630;29;20051;-80
2023/06/14 02:44:19;;;;;;;11.63;6.18;;;;;;;;;;4929423;29;20051;-80
2023/06/14 02:47:05;;;;;;;13.27;5.10;;;;;;;;;;4927438;29;20047;-82
2023/06/14 02:49:50;;;;;;;11.32;5.22;;;;;;;;;;4929887;29;20043;-80
2023/06/14 02:52:52;;;;;;;15.02;5.32;;;;;;;;;;4928971;29;20052;-81
2023/06/14 02:55:49;;;;;;;6.85;5.05;;;;;;;;;;4937443;29;20044;-82
2023/06/14 02:58:42;;;;;;;;;;;;;;;;;;4936631;29;20501;-81
2023/06/14 03:01:35;;;;;;;;;;;;;;;;;;4917388;29;19918;-80
2023/06/14 03:04:25;;;;;;;11.90;5.18;;;;;;;;;;4929059;29;19914;-81
2023/06/14 03:07:12;;;;;;;13.25;5.53;;;;;;;;;;4915796;29;20040;-81
2023/06/14 03:10:00;;;;;;;9.95;5.97;;;;;;;;;;4916047;29;20047;-80
2023/06/14 03:12:47;;;;;;;9.02;6.38;;;;;;;;;;4915898;29;20398;-81
2023/06/14 03:15:33;;;;;;;10.60;6.40;;;;;;;;;;4915449;29;20043;-82
2023/06/14 03:18:22;;;;;;;12.10;4.88;;;;;;;;;;4915282;29;20040;-82
2023/06/14 03:21:10;;;;;;;6.55;4.15;;;;;;;;;;4915866;29;20055;-81
2023/06/14 03:23:59;;;;;;;6.28;3.95;;;;;;;;;;4915800;29;20393;-82
2023/06/14 04:30:41;;;;;;;14.15;5.95;;;;;;;;;;4936391;28;20048;-83
2023/06/14 04:51:46;;;;;;;;;;;;;;;;;;;;;
2023/06/14 04:55:48;;;;;;;7.25;4.93;;;;;;;;;;4807012;29;20054;-82
2023/06/14 04:58:39;;;;;;;10.68;5.50;;;;;;;;;;4800618;29;20048;-80
2023/06/14 05:01:25;;;;;;;9.52;5.35;;;;;;;;;;4835230;29;20051;-82
2023/06/14 05:04:11;;;;;;;13.18;6.68;;;;;;;;;;4931409;29;20497;-82
2023/06/14 05:06:57;;;;;;;16.13;7.03;;;;;;;;;;4938903;29;20051;-81
2023/06/14 05:09:42;;;;;;;11.23;6.40;;;;;;;;;;4939106;29;20064;-82
2023/06/14 05:12:29;;;;;;;20.67;6.45;;;;;;;;;;4917413;29;20047;-83
2023/06/14 05:15:14;;;;;;;16.55;6.00;;;;;;;;;;4930723;29;20047;-83
2023/06/14 05:18:01;;;;;;;9.23;5.90;;;;;;;;;;4930655;29;20110;-83
2023/06/14 05:20:46;;;;;;;14.25;5.75;;;;;;;;;;4938633;29;20047;-83
2023/06/14 05:23:44;;;;;;;;;;;;;;;;;;;;;
2023/06/14 05:35:46;;;;;;;14.95;6.75;;;;;;;;;;4860931;29;20448;-82
2023/06/14 06:08:21;;;;;;;;;;;;;;;;;;;;;
2023/06/14 06:16:26;;;;;;;11.50;6.75;;;;;;;;;;4930085;29;20048;-83
2023/06/14 07:38:45;;;;;;;5.13;3.42;;;;;;;;;;4941743;29;20043;-82
2023/06/14 07:41:30;;;;;;;5.75;3.50;;;;;;;;;;4921968;29;20044;-81
2023/06/14 07:44:16;;;;;;;4.78;3.67;;;;;;;;;;4937016;29;20044;-77
2023/06/14 07:47:00;;;;;;;4.65;3.20;;;;;;;;;;4936412;29;20043;-81
2023/06/14 07:49:46;;;;;;;4.55;3.15;;;;;;;;;;4922534;29;20044;-82
2023/06/14 07:52:32;;;;;;;5.90;2.88;;;;;;;;;;4928351;29;20406;-82
2023/06/14 07:55:18;;;;;;;5.25;2.60;;;;;;;;;;4936501;29;20039;-83
2023/06/14 07:58:05;;;;;;;3.65;2.70;;;;;;;;;;4936501;29;20485;-82
2023/06/14 08:00:51;;;;;;;4.05;2.33;;;;;;;;;;4936269;29;20394;-84
2023/06/14 08:03:36;;;;;;;7.13;2.88;;;;;;;;;;4936253;29;20051;-83
2023/06/14 08:06:21;;;;;;;4.03;2.70;;;;;;;;;;4922264;29;20039;-83
2023/06/14 08:09:07;;;;;;;3.53;2.53;;;;;;;;;;4921759;29;20047;-82
2023/06/14 08:11:53;;;;;;;5.63;2.38;;;;;;;;;;4936285;29;20052;-81
2023/06/14 08:14:40;;;;;;;4.70;2.10;;;;;;;;;;4928211;29;20055;-83
2023/06/14 08:17:26;;;;;;;5.57;2.50;;;;;;;;;;4936310;29;20043;-83
2023/06/14 08:20:13;;;;;;;5.95;3.30;;;;;;;;;;4921914;29;20051;-82
2023/06/14 08:22:58;;;;;;;3.97;2.42;;;;;;;;;;4936639;29;20043;-81
2023/06/14 08:25:44;;;;;;;4.32;2.40;;;;;;;;;;4925655;29;20051;-83
2023/06/14 08:28:30;;;;;;;3.13;2.00;;;;;;;;;;4940825;29;20048;-88
2023/06/14 08:31:15;;;;;;;3.95;2.20;;;;;;;;;;4947543;29;20055;-82
2023/06/14 08:34:00;;;;;;;5.93;1.70;;;;;;;;;;4946462;29;20044;-81
2023/06/14 08:36:46;;;;;;;4.47;2.30;;;;;;;;;;4946540;29;20052;-84
2023/06/14 08:39:32;;;;;;;3.53;2.08;;;;;;;;;;4932640;29;20394;-84
2023/06/14 08:42:21;;;;;;;3.30;2.05;;;;;;;;;;4938462;29;20044;-83
2023/06/14 08:45:08;;;;;;;1.75;1.50;;;;;;;;;;4946345;29;20047;-83
2023/06/14 08:47:57;;;;;;;4.55;1.80;;;;;;;;;;4945522;29;20040;-82
2023/06/14 08:50:45;;;;;;;2.58;1.77;;;;;;;;;;4925261;29;20051;-81
2023/06/14 08:53:34;;;;;;;2.42;1.92;;;;;;;;;;4938661;29;20047;-83
2023/06/14 08:56:20;;;;;;;2.10;1.70;;;;;;;;;;4939437;29;20047;-86
2023/06/14 08:59:06;;;;;;;3.88;1.67;;;;;;;;;;4924929;29;20048;-82
2023/06/14 09:09:45;;;;;;;4.13;1.70;;;;;;;;;;4927739;29;20056;-89
2023/06/14 09:42:25;;;;;;;2.92;1.77;;;;;;;;;;4930749;29;20051;-90
2023/06/14 09:45:13;;;;;;;3.55;1.40;;;;;;;;;;4938426;29;20039;-84
2023/06/14 09:47:59;;;;;;;3.80;1.70;;;;;;;;;;4937593;29;20052;-81
2023/06/14 09:50:49;;;;;;;3.60;2.05;;;;;;;;;;4924373;29;20051;-79
2023/06/14 09:53:36;;;;;;;2.28;1.63;;;;;;;;;;4938731;29;20040;-84
2023/06/14 09:56:29;;;;;;;3.85;1.50;;;;;;;;;;4938644;29;20051;-82
2023/06/14 09:59:21;;;;;;;2.25;1.67;;;;;;;;;;4938667;29;20502;-85
2023/06/14 10:02:31;;;;;;;3.25;1.80;;;;;;;;;;4938871;29;20048;-81
2023/06/14 10:05:20;;;;;;;2.30;1.58;;;;;;;;;;4937990;29;20040;-82
2023/06/14 10:08:13;;;;;;;1.60;1.50;;;;;;;;;;4937700;29;20052;-83
2023/06/14 10:10:58;;;;;;;1.63;1.52;;;;;;;;;;4938542;29;20044;-80
2023/06/14 10:13:44;;;;;;;2.15;1.60;;;;;;;;;;4938151;29;20055;-80
2023/06/14 10:16:37;;;;;;;1.58;1.33;;;;;;;;;;4930339;29;20043;-79
2023/06/14 10:19:34;;;;;;;3.53;1.77;;;;;;;;;;4929958;29;20617;-82
2023/06/14 10:22:39;;;;;;;2.80;1.90;;;;;;;;;;4937710;29;20044;-85
2023/06/14 10:25:29;;;;;;;3.92;1.73;;;;;;;;;;4937582;29;20060;-87
2023/06/14 10:28:19;;;;;;;2.85;1.70;;;;;;;;;;4929468;29;20051;-85
2023/06/14 10:31:05;;;;;;;5.40;1.98;;;;;;;;;;4937838;29;20047;-84
2023/06/14 10:33:56;;;;;;;6.22;2.17;;;;;;;;;;4937705;29;20386;-85
2023/06/14 10:36:43;;;;;;;1.52;1.42;;;;;;;;;;4937117;29;20052;-84
2023/06/14 10:39:29;;;;;;;2.70;1.70;;;;;;;;;;4937741;29;20052;-82
2023/06/14 10:42:15;;;;;;;2.80;1.83;;;;;;;;;;4937501;29;20052;-86
2023/06/14 10:45:01;;;;;;;3.28;1.60;;;;;;;;;;4937352;29;20043;-82
2023/06/14 10:47:49;;;;;;;2.08;1.50;;;;;;;;;;4937119;29;20051;-85
2023/06/14 10:50:35;;;;;;;4.28;1.70;;;;;;;;;;4929646;29;20039;-85
2023/06/14 10:53:24;;;;;;;1.95;1.63;;;;;;;;;;4937551;29;20044;-85
2023/06/14 10:56:24;;;;;;;3.35;1.70;;;;;;;;;;4936940;29;20051;-84
2023/06/14 10:59:10;;;;;;;2.08;1.80;;;;;;;;;;4937287;29;20047;-85
2023/06/14 11:02:14;;;;;;;3.03;1.85;;;;;;;;;;4937013;29;20044;-85
2023/06/14 11:05:10;;;;;;;2.05;1.80;;;;;;;;;;4937126;29;20048;-81
2023/06/14 11:08:07;;;;;;;3.70;1.50;;;;;;;;;;4929597;29;20043;-84
2023/06/14 11:10:54;;;;;;;3.28;1.95;;;;;;;;;;4923934;29;20514;-84
2023/06/14 11:13:43;;;;;;;3.13;1.85;;;;;;;;;;4936853;29;20039;-82
2023/06/14 11:16:29;;;;;;;2.45;2.00;;;;;;;;;;4936694;29;20047;-82
2023/06/14 11:19:14;;;;;;;2.20;2.00;;;;;;;;;;4922706;29;20047;-82
2023/06/14 11:21:59;;;;;;;4.75;1.98;;;;;;;;;;4937269;29;20052;-82
2023/06/14 11:24:45;;;;;;;2.58;1.80;;;;;;;;;;4936230;29;20051;-82
2023/06/14 11:27:33;;;;;;;1.95;1.70;;;;;;;;;;4936906;29;20052;-84
2023/06/14 11:30:18;;;;;;;2.97;2.05;;;;;;;;;;4936944;29;20051;-83
2023/06/14 11:33:03;;;;;;;1.92;1.50;;;;;;;;;;4936495;29;20051;-84
2023/06/14 11:35:49;;;;;;;2.65;1.90;;;;;;;;;;4936466;29;20055;-82
2023/06/14 11:38:36;;;;;;;2.40;2.00;;;;;;;;;;4936212;29;20051;-83
2023/06/14 11:41:25;;;;;;;4.00;2.10;;;;;;;;;;4936044;29;20044;-84
2023/06/14 11:44:11;;;;;;;1.70;1.60;;;;;;;;;;4936295;29;20052;-82
2023/06/14 11:46:57;;;;;;;2.65;1.77;;;;;;;;;;4936606;29;20043;-84
2023/06/14 11:49:43;;;;;;;3.53;2.00;;;;;;;;;;4936419;29;20043;-83
2023/06/14 11:52:28;;;;;;;2.50;1.90;;;;;;;;;;4935984;29;20043;-81
2023/06/14 11:55:14;;;;;;;2.22;1.73;;;;;;;;;;4936412;29;20051;-83
2023/06/14 11:57:59;;;;;;;2.97;2.03;;;;;;;;;;4937677;29;20394;-83
2023/06/14 12:00:44;;;;;;;2.13;1.92;;;;;;;;;;4942868;29;20043;-82
2023/06/14 12:03:31;;;;;;;2.80;1.80;;;;;;;;;;4943238;29;20043;-83
2023/06/14 12:06:17;;;;;;;2.70;2.08;;;;;;;;;;4942420;29;20043;-83
2023/06/14 12:09:10;;;;;;;2.72;1.90;;;;;;;;;;4942636;29;20043;-82
2023/06/14 12:12:03;;;;;;;4.53;1.92;;;;;;;;;;4928295;29;20486;-83
2023/06/14 12:14:50;;;;;;;3.25;1.73;;;;;;;;;;4942885;29;20036;-83
2023/06/14 12:17:36;;;;;;;3.10;1.90;;;;;;;;;;4933794;29;20051;-85
2023/06/14 12:20:22;;;;;;;2.60;2.25;;;;;;;;;;4928439;29;20036;-83
2023/06/14 12:23:08;;;;;;;5.35;2.20;;;;;;;;;;4943031;29;20466;-84
2023/06/14 12:25:53;;;;;;;3.63;2.15;;;;;;;;;;4942303;29;20047;-83
2023/06/14 12:28:40;;;;;;;3.60;2.15;;;;;;;;;;4942469;29;20039;-83
2023/06/14 12:31:26;;;;;;;2.47;2.20;;;;;;;;;;4943911;29;20044;-82
2023/06/14 12:34:11;;;;;;;4.55;2.08;;;;;;;;;;4943941;29;20405;-83
2023/06/14 12:36:57;;;;;;;3.42;2.30;;;;;;;;;;4943072;29;20043;-85
2023/06/14 12:39:43;;;;;;;4.55;2.20;;;;;;;;;;4942599;29;20047;-83
2023/06/14 12:42:28;;;;;;;2.70;2.28;;;;;;;;;;4934341;29;20047;-88
2023/06/14 12:45:14;;;;;;;5.07;2.20;;;;;;;;;;4934873;29;20051;-83
2023/06/14 12:48:01;;;;;;;5.40;1.98;;;;;;;;;;4943089;29;20039;-84
2023/06/14 12:50:48;;;;;;;2.55;2.35;;;;;;;;;;4942614;29;20047;-84
2023/06/14 12:53:33;;;;;;;3.55;2.20;;;;;;;;;;4942144;29;20043;-86
2023/06/14 12:56:18;;;;;;;3.72;2.03;;;;;;;;;;4942957;29;20051;-83
2023/06/14 12:59:04;;;;;;;2.58;2.25;;;;;;;;;;4942115;29;20047;-85
2023/06/14 13:01:50;;;;;;;4.43;2.22;;;;;;;;;;4941824;29;20051;-85
2023/06/14 13:04:34;;;;;;;4.20;2.10;;;;;;;;;;4942101;29;20044;-84
2023/06/14 13:07:19;;;;;;;3.55;2.25;;;;;;;;;;4942783;29;20482;-85
2023/06/14 13:10:05;;;;;;;3.92;2.50;;;;;;;;;;4918000;29;20409;-84
2023/06/14 13:12:51;;;;;;;3.22;2.50;;;;;;;;;;4939425;29;20047;-83
2023/06/14 13:15:36;;;;;;;4.55;2.50;;;;;;;;;;4926310;29;20051;-84
2023/06/14 13:18:22;;;;;;;4.70;2.33;;;;;;;;;;4940750;29;20047;-84
2023/06/14 13:21:07;;;;;;;2.85;2.15;;;;;;;;;;4940085;29;20048;-85
2023/06/14 13:23:53;;;;;;;2.55;2.30;;;;;;;;;;4942067;29;20047;-85
2023/06/14 13:26:39;;;;;;;11.32;2.30;;;;;;;;;;4942397;29;20044;-85
2023/06/14 13:29:26;;;;;;;6.68;2.45;;;;;;;;;;4939031;29;20047;-86
2023/06/14 13:32:11;;;;;;;3.72;2.45;;;;;;;;;;4938563;29;20040;-81
2023/06/14 13:34:56;;;;;;;2.47;2.08;;;;;;;;;;4938987;29;20426;-85
2023/06/14 13:37:42;;;;;;;5.10;2.35;;;;;;;;;;4938371;29;20047;-84
2023/06/14 13:40:27;;;;;;;4.05;2.55;;;;;;;;;;4938969;29;20482;-84
2023/06/14 13:43:13;;;;;;;2.80;2.10;;;;;;;;;;4938086;29;20039;-84
2023/06/14 13:45:59;;;;;;;2.45;1.95;;;;;;;;;;4930593;29;20044;-84
2023/06/14 13:48:47;;;;;;;5.38;2.17;;;;;;;;;;4938691;29;20052;-82
2023/06/14 13:51:34;;;;;;;3.97;2.10;;;;;;;;;;4938305;29;20044;-85
2023/06/14 13:54:21;;;;;;;4.18;1.83;;;;;;;;;;4938314;29;20043;-82
2023/06/14 13:57:06;;;;;;;2.38;2.08;;;;;;;;;;4938668;29;20399;-84
2023/06/14 13:59:55;;;;;;;2.50;2.22;;;;;;;;;;4938439;29;20040;-84
2023/06/14 14:02:40;;;;;;;2.50;2.20;;;;;;;;;;4938422;29;20051;-82
2023/06/14 14:05:29;;;;;;;2.75;2.17;;;;;;;;;;4938049;29;20484;-83
2023/06/14 14:08:14;;;;;;;2.28;2.08;;;;;;;;;;4938157;29;20047;-82
2023/06/14 14:11:00;;;;;;;2.40;1.70;;;;;;;;;;4938104;29;20497;-83
2023/06/14 14:13:46;;;;;;;3.40;2.40;;;;;;;;;;4938037;29;20043;-83
2023/06/14 14:16:31;;;;;;;5.70;3.63;;;;;;;;;;4938173;29;20389;-82
2023/06/14 14:19:18;;;;;;;10.13;4.65;;;;;;;;;;4938144;29;20040;-82
2023/06/14 14:22:03;;;;;;;6.90;4.97;;;;;;;;;;4924966;29;20052;-83
2023/06/14 14:24:49;;;;;;;11.93;8.25;;;;;;;;;;4935289;29;20043;-84
2023/06/14 14:27:34;;;;;;;8.73;6.50;;;;;;;;;;4936873;29;20490;-84
2023/06/14 14:30:27;;;;;;;7.82;5.93;;;;;;;;;;4938813;29;20040;-84
2023/06/14 14:33:20;;;;;;;7.22;5.00;;;;;;;;;;4938273;29;20051;-81
2023/06/14 14:36:08;;;;;;;4.63;3.08;;;;;;;;;;4937511;29;20056;-81
2023/06/14 14:38:54;;;;;;;6.82;3.83;;;;;;;;;;4936952;29;20060;-81
2023/06/14 14:41:39;;;;;;;8.70;4.00;;;;;;;;;;4929039;29;20307;-81
2023/06/14 14:44:25;;;;;;;6.28;3.70;;;;;;;;;;4936703;29;20482;-83
2023/06/14 14:47:15;;;;;;;8.85;6.15;;;;;;;;;;4937239;29;20406;-82
2023/06/14 14:50:10;;;;;;;11.23;7.15;;;;;;;;;;4936775;29;20048;-83
2023/06/14 14:53:18;;;;;;;6.63;4.28;;;;;;;;;;4936859;29;20060;-84
2023/06/14 14:56:39;;;;;;;10.38;4.53;;;;;;;;;;4935866;29;20044;-83
2023/06/14 14:59:26;;;;;;;13.40;4.00;;;;;;;;;;4937165;29;20043;-81
2023/06/14 15:02:24;;;;;;;6.80;3.65;;;;;;;;;;4936896;29;20063;-83
2023/06/14 15:05:10;;;;;;;6.30;3.78;;;;;;;;;;4936688;29;20485;-81
2023/06/14 15:07:59;;;;;;;7.60;3.67;;;;;;;;;;4937007;29;20498;-83
2023/06/14 15:10:47;;;;;;;10.68;4.93;;;;;;;;;;4937033;29;20051;-81
2023/06/14 15:13:32;;;;;;;9.55;4.00;;;;;;;;;;4937204;29;20402;-81
2023/06/14 15:16:18;;;;;;;9.23;4.65;;;;;;;;;;4936945;29;20047;-80
2023/06/14 15:19:04;;;;;;;5.38;3.88;;;;;;;;;;4936743;29;20518;-79
2023/06/14 15:21:49;;;;;;;29.35;13.55;;;;;;;;;;4936572;29;20048;-80
2023/06/14 15:24:38;;;;;;;7.57;3.40;;;;;;;;;;4936450;29;20118;-80
2023/06/14 15:27:24;;;;;;;5.28;3.50;;;;;;;;;;4936742;29;20055;-82
2023/06/14 15:30:10;;;;;;;5.53;3.60;;;;;;;;;;4935662;29;20398;-81
2023/06/14 15:32:55;;;;;;;7.20;3.20;;;;;;;;;;4935657;29;20055;-83
2023/06/14 15:35:40;;;;;;;3.83;3.08;;;;;;;;;;4936612;29;20379;-83
2023/06/14 15:38:26;;;;;;;5.97;3.00;;;;;;;;;;4935712;29;20051;-81
2023/06/14 15:41:14;;;;;;;6.15;3.20;;;;;;;;;;4936490;29;20036;-80
2023/06/14 15:44:00;;;;;;;9.55;3.90;;;;;;;;;;4936260;29;20044;-80
2023/06/14 15:46:45;;;;;;;8.10;4.47;;;;;;;;;;4935322;29;20047;-82
2023/06/14 15:49:31;;;;;;;5.45;3.63;;;;;;;;;;4934474;29;20048;-80
2023/06/14 15:52:17;;;;;;;8.40;3.67;;;;;;;;;;4937290;29;20414;-81
2023/06/14 15:55:03;;;;;;;4.75;3.50;;;;;;;;;;4933802;29;20047;-79
2023/06/14 15:57:48;;;;;;;7.32;3.72;;;;;;;;;;4932558;29;20067;-81
2023/06/14 16:00:33;;;;;;;7.38;3.78;;;;;;;;;;4934574;29;20036;-82
2023/06/14 16:03:19;;;;;;;4.00;2.53;;;;;;;;;;4933638;29;20043;-80
2023/06/14 16:06:04;;;;;;;3.53;2.60;;;;;;;;;;4932896;29;20056;-80
2023/06/14 16:08:52;;;;;;;7.05;3.25;;;;;;;;;;4933119;29;20055;-84
2023/06/14 16:11:36;;;;;;;4.82;2.67;;;;;;;;;;4935304;29;20052;-83
2023/06/14 16:14:21;;;;;;;5.32;3.60;;;;;;;;;;4935953;29;20043;-83
2023/06/14 16:17:07;;;;;;;5.30;2.92;;;;;;;;;;4935815;29;20055;-83
2023/06/14 16:19:53;;;;;;;9.57;3.00;;;;;;;;;;4935948;29;20049;-82
2023/06/14 16:22:38;;;;;;;6.80;3.72;;;;;;;;;;4921828;29;20059;-82
2023/06/14 16:25:23;;;;;;;7.25;4.97;;;;;;;;;;4935519;29;20040;-80
2023/06/14 16:28:08;;;;;;;5.70;4.45;;;;;;;;;;4936003;29;20482;-80
2023/06/14 16:30:54;;;;;;;7.38;3.78;;;;;;;;;;4935572;29;20402;-80
2023/06/14 16:33:40;;;;;;;7.25;3.65;;;;;;;;;;4936005;29;20055;-80
2023/06/14 16:36:26;;;;;;;16.42;7.22;;;;;;;;;;4935507;29;20051;-80
2023/06/14 16:39:12;;;;;;;4.68;3.45;;;;;;;;;;4935101;29;20056;-79
2023/06/14 16:41:57;;;;;;;8.75;5.57;;;;;;;;;;4921735;29;20048;-79
2023/06/14 16:44:43;;;;;;;5.95;3.85;;;;;;;;;;4936865;29;20482;-79
2023/06/14 16:47:30;;;;;;;5.97;3.22;;;;;;;;;;4939382;29;20044;-79
2023/06/14 16:50:15;;;;;;;9.98;5.78;;;;;;;;;;4939230;29;20047;-79
2023/06/14 16:53:01;;;;;;;9.90;5.18;;;;;;;;;;4939410;29;20494;-79
2023/06/14 16:55:46;;;;;;;4.80;3.53;;;;;;;;;;4939500;29;20051;-81
2023/06/14 16:58:32;;;;;;;6.10;3.22;;;;;;;;;;4939477;29;20493;-81
2023/06/14 17:01:17;;;;;;;6.35;3.83;;;;;;;;;;4939265;29;20044;-80
2023/06/14 17:04:03;;;;;;;4.80;3.80;;;;;;;;;;4938653;29;20048;-81
2023/06/14 17:06:48;;;;;;;4.72;3.53;;;;;;;;;;4939061;29;20051;-81
2023/06/14 17:09:34;;;;;;;5.88;3.50;;;;;;;;;;4939267;29;20047;-81
2023/06/14 17:12:19;;;;;;;7.10;4.68;;;;;;;;;;4939048;29;20047;-80
2023/06/14 17:15:09;;;;;;;12.02;5.47;;;;;;;;;;4939066;29;20055;-80
2023/06/14 17:17:55;;;;;;;6.75;4.90;;;;;;;;;;4939234;29;20098;-82
2023/06/14 17:20:40;;;;;;;9.88;4.90;;;;;;;;;;4939320;29;20035;-81
2023/06/14 17:23:27;;;;;;;10.50;4.65;;;;;;;;;;4939109;29;20052;-84
2023/06/14 17:26:13;;;;;;;9.18;4.47;;;;;;;;;;4938594;29;20486;-82
2023/06/14 17:29:00;;;;;;;9.68;4.75;;;;;;;;;;4938681;29;20043;-84
2023/06/14 17:31:45;;;;;;;6.55;4.53;;;;;;;;;;4924884;29;20055;-84
2023/06/14 17:34:30;;;;;;;10.50;4.82;;;;;;;;;;4939319;29;20051;-82
2023/06/14 17:37:15;;;;;;;7.10;4.95;;;;;;;;;;4938859;29;20048;-84
2023/06/14 17:40:00;;;;;;;7.50;4.80;;;;;;;;;;4938982;29;20044;-84
2023/06/14 17:42:46;;;;;;;8.80;6.57;;;;;;;;;;4938287;29;20055;-84
2023/06/14 17:45:31;;;;;;;8.48;5.50;;;;;;;;;;4945432;29;20051;-82
2023/06/14 17:48:18;;;;;;;6.40;4.97;;;;;;;;;;4938171;29;20044;-83
2023/06/14 17:51:05;;;;;;;6.20;5.00;;;;;;;;;;4937525;29;20044;-82
2023/06/14 17:53:51;;;;;;;8.20;4.38;;;;;;;;;;4936021;29;20051;-83
2023/06/14 17:56:37;;;;;;;10.48;5.47;;;;;;;;;;4935674;29;20397;-84
2023/06/14 17:59:23;;;;;;;16.63;8.02;;;;;;;;;;4936015;29;20043;-82
2023/06/14 18:02:08;;;;;;;10.15;6.40;;;;;;;;;;4922391;29;20043;-83
2023/06/14 18:04:53;;;;;;;10.43;4.90;;;;;;;;;;4940344;29;20043;-84
2023/06/14 18:07:38;;;;;;;7.22;4.40;;;;;;;;;;4941563;29;20553;-85
2023/06/14 18:10:25;;;;;;;7.80;4.90;;;;;;;;;;4944628;29;20044;-84
2023/06/14 18:13:10;;;;;;;8.48;4.30;;;;;;;;;;4940297;29;20047;-85
2023/06/14 18:15:57;;;;;;;9.23;4.40;;;;;;;;;;4939319;29;20043;-85
2023/06/14 18:18:43;;;;;;;9.55;5.40;;;;;;;;;;4942174;29;20047;-86
2023/06/14 18:21:28;;;;;;;10.98;4.40;;;;;;;;;;4918407;29;20044;-84
2023/06/14 18:24:20;;;;;;;8.27;4.50;;;;;;;;;;4940275;29;20056;-83
2023/06/14 18:27:11;;;;;;;13.95;4.38;;;;;;;;;;4927913;29;20494;-79
2023/06/14 18:30:08;;;;;;;14.05;4.80;;;;;;;;;;4935280;29;20043;-78
2023/06/14 18:32:58;;;;;;;10.95;4.30;;;;;;;;;;4934863;29;20047;-79
2023/06/14 18:35:52;;;;;;;8.68;5.18;;;;;;;;;;4920875;29;20048;-80
2023/06/14 18:38:48;;;;;;;17.05;8.30;;;;;;;;;;4920408;29;20438;-78
2023/06/14 18:41:36;;;;;;;;;;;;;;;;;;4935642;29;20402;-84
2023/06/14 18:44:30;;;;;;;5.15;3.53;;;;;;;;;;4935454;29;19915;-86
2023/06/14 18:47:27;;;;;;;7.30;3.60;;;;;;;;;;4936502;29;20051;-84
2023/06/14 18:50:17;;;;;;;5.22;3.67;;;;;;;;;;4922373;29;20048;-82
2023/06/14 18:53:02;;;;;;;5.13;3.58;;;;;;;;;;4936831;29;20398;-80
2023/06/14 18:55:48;;;;;;;10.63;4.07;;;;;;;;;;4938793;29;20051;-82
2023/06/14 18:58:35;;;;;;;6.72;3.83;;;;;;;;;;4924714;29;20047;-81
2023/06/14 19:01:20;;;;;;;8.80;4.43;;;;;;;;;;4937664;29;20061;-82
2023/06/14 19:04:05;;;;;;;9.75;4.20;;;;;;;;;;4943251;29;20048;-83
2023/06/14 19:06:50;;;;;;;9.75;5.60;;;;;;;;;;4937054;29;20478;-83
2023/06/14 19:09:36;;;;;;;6.40;4.25;;;;;;;;;;4954572;29;20048;-84
2023/06/14 19:12:22;;;;;;;8.77;4.22;;;;;;;;;;4938039;29;20047;-83
2023/06/14 19:15:08;;;;;;;6.90;4.38;;;;;;;;;;4939131;29;20055;-83
2023/06/14 19:17:57;;;;;;;8.43;4.70;;;;;;;;;;4948297;29;20047;-84
2023/06/14 19:20:43;;;;;;;8.23;6.13;;;;;;;;;;4943551;29;20402;-81
2023/06/14 19:23:28;;;;;;;13.85;6.13;;;;;;;;;;4938415;29;20048;-81
2023/06/14 19:26:13;;;;;;;8.63;5.25;;;;;;;;;;4937008;29;20051;-84
2023/06/14 19:28:59;;;;;;;6.18;4.57;;;;;;;;;;4936765;29;20047;-83
2023/06/14 19:31:48;;;;;;;7.50;4.68;;;;;;;;;;4936661;29;20036;-84
2023/06/14 19:34:33;;;;;;;7.60;5.03;;;;;;;;;;4936669;29;20482;-83
2023/06/14 19:37:19;;;;;;;6.82;5.18;;;;;;;;;;4936345;29;20043;-82
2023/06/14 19:40:05;;;;;;;7.90;4.90;;;;;;;;;;4936323;29;20043;-81
2023/06/14 19:42:50;;;;;;;8.45;5.00;;;;;;;;;;4936493;29;20055;-82
2023/06/14 19:45:35;;;;;;;5.97;4.45;;;;;;;;;;4936392;29;20040;-82
2023/06/14 19:48:24;;;;;;;11.25;5.50;;;;;;;;;;4942327;29;20051;-81
2023/06/14 19:51:27;;;;;;;7.15;4.95;;;;;;;;;;4934324;29;20059;-84
2023/06/14 19:54:18;;;;;;;6.00;4.40;;;;;;;;;;4932858;29;20419;-83
2023/06/14 19:57:08;;;;;;;5.93;4.13;;;;;;;;;;4934112;29;20074;-82
2023/06/14 19:59:59;;;;;;;5.47;4.20;;;;;;;;;;4921695;29;20052;-82
2023/06/14 20:02:44;;;;;;;7.43;4.30;;;;;;;;;;4934593;29;20044;-83
2023/06/14 20:05:41;;;;;;;6.40;4.22;;;;;;;;;;4933794;29;20055;-83
2023/06/14 20:08:47;;;;;;;6.38;3.97;;;;;;;;;;4934328;29;20044;-85
2023/06/14 20:11:39;;;;;;;7.22;4.30;;;;;;;;;;4936127;29;20052;-88
2023/06/14 20:14:27;;;;;;;5.22;3.83;;;;;;;;;;4926928;29;20051;-89
2023/06/14 20:17:22;;;;;;;5.97;4.35;;;;;;;;;;4927627;29;20047;-87
2023/06/14 20:20:10;;;;;;;7.35;4.18;;;;;;;;;;4938432;29;20035;-84
2023/06/14 20:22:57;;;;;;;6.15;3.92;;;;;;;;;;4939315;29;20501;-79
2023/06/14 20:25:48;;;;;;;8.75;4.15;;;;;;;;;;4941485;29;20406;-79
2023/06/14 20:28:37;;;;;;;6.28;4.55;;;;;;;;;;4927940;29;20056;-77
2023/06/14 20:31:26;;;;;;;5.97;4.05;;;;;;;;;;4938786;29;20055;-79
2023/06/14 20:34:13;;;;;;;5.63;3.80;;;;;;;;;;4939410;29;20048;-80
2023/06/14 20:36:59;;;;;;;8.90;3.80;;;;;;;;;;4937431;29;20056;-79
2023/06/14 20:39:47;;;;;;;7.63;4.32;;;;;;;;;;4937506;29;20056;-79
2023/06/14 20:42:37;;;;;;;9.38;4.40;;;;;;;;;;4936492;29;20047;-80
2023/06/14 20:45:27;;;;;;;7.35;4.35;;;;;;;;;;4936723;29;20513;-80
2023/06/14 20:48:18;;;;;;;5.72;4.28;;;;;;;;;;4937425;29;20051;-79
2023/06/14 20:51:05;;;;;;;7.85;4.35;;;;;;;;;;4936990;29;20486;-79